sensor_id;sensor_type;location;lat;lon;timestamp;pressure;altitude;pressure_sealevel;temperature;humidity
37904;BME280;23738;50.422;18.758;2023-02-23T00:00:53;98575.93;;;0.74;78.35
37904;BME280;23738;50.422;18.758;2023-02-23T00:03:20;98574.80;;;0.72;78.45
37904;BME280;23738;50.422;18.758;2023-02-23T00:05:47;98573.92;;;0.73;78.50
37904;BME280;23738;50.422;18.758;2023-02-23T00:08:14;98573.11;;;0.74;78.42
37904;BME280;23738;50.422;18.758;2023-02-23T00:10:42;98573.59;;;0.77;78.36
37904;BME280;23738;50.422;18.758;2023-02-23T00:13:10;98572.05;;;0.79;78.55
37904;BME280;23738;50.422;18.758;2023-02-23T00:15:37;98571.84;;;0.79;78.72
37904;BME280;23738;50.422;18.758;2023-02-23T00:18:05;98571.42;;;0.78;78.71
37904;BME280;23738;50.422;18.758;2023-02-23T00:20:32;98574.87;;;0.76;78.71
37904;BME280;23738;50.422;18.758;2023-02-23T00:23:00;98573.16;;;0.71;78.84
37904;BME280;23738;50.422;18.758;2023-02-23T00:25:27;98569.76;;;0.69;78.78
37904;BME280;23738;50.422;18.758;2023-02-23T00:27:56;98571.53;;;0.68;78.78
37904;BME280;23738;50.422;18.758;2023-02-23T00:30:24;98569.73;;;0.69;78.77
37904;BME280;23738;50.422;18.758;2023-02-23T00:32:51;98566.99;;;0.71;78.90
37904;BME280;23738;50.422;18.758;2023-02-23T00:35:19;98567.38;;;0.70;78.87
37904;BME280;23738;50.422;18.758;2023-02-23T00:37:47;98567.27;;;0.68;78.94
37904;BME280;23738;50.422;18.758;2023-02-23T00:40:17;98565.20;;;0.64;78.95
37904;BME280;23738;50.422;18.758;2023-02-23T00:42:48;98565.89;;;0.62;78.98
37904;BME280;23738;50.422;18.758;2023-02-23T00:45:17;98563.64;;;0.60;78.91
37904;BME280;23738;50.422;18.758;2023-02-23T00:47:45;98563.48;;;0.60;78.91
37904;BME280;23738;50.422;18.758;2023-02-23T00:50:15;98559.59;;;0.59;78.99
37904;BME280;23738;50.422;18.758;2023-02-23T00:52:43;98559.80;;;0.58;78.81
37904;BME280;23738;50.422;18.758;2023-02-23T00:55:12;98563.34;;;0.56;79.03
37904;BME280;23738;50.422;18.758;2023-02-23T00:57:40;98560.52;;;0.52;79.05
37904;BME280;23738;50.422;18.758;2023-02-23T01:00:11;98555.61;;;0.49;79.03
37904;BME280;23738;50.422;18.758;2023-02-23T01:02:46;98556.09;;;0.48;79.09
37904;BME280;23738;50.422;18.758;2023-02-23T01:05:14;98555.05;;;0.48;79.10
37904;BME280;23738;50.422;18.758;2023-02-23T01:07:42;98554.98;;;0.48;79.12
37904;BME280;23738;50.422;18.758;2023-02-23T01:10:12;98553.75;;;0.49;79.02
37904;BME280;23738;50.422;18.758;2023-02-23T01:12:49;98559.42;;;0.47;79.26
37904;BME280;23738;50.422;18.758;2023-02-23T01:15:18;98552.05;;;0.44;79.20
37904;BME280;23738;50.422;18.758;2023-02-23T01:17:46;98555.23;;;0.41;79.10
37904;BME280;23738;50.422;18.758;2023-02-23T01:20:15;98553.61;;;0.38;79.14
37904;BME280;23738;50.422;18.758;2023-02-23T01:22:45;98547.31;;;0.37;79.17
37904;BME280;23738;50.422;18.758;2023-02-23T01:25:13;98548.70;;;0.37;79.20
37904;BME280;23738;50.422;18.758;2023-02-23T01:27:41;98544.96;;;0.36;79.08
37904;BME280;23738;50.422;18.758;2023-02-23T01:30:12;98544.13;;;0.36;79.15
37904;BME280;23738;50.422;18.758;2023-02-23T01:32:40;98545.39;;;0.33;79.30
37904;BME280;23738;50.422;18.758;2023-02-23T01:35:10;98543.70;;;0.31;79.25
37904;BME280;23738;50.422;18.758;2023-02-23T01:37:40;98541.15;;;0.28;79.20
37904;BME280;23738;50.422;18.758;2023-02-23T01:40:13;98538.92;;;0.28;79.13
37904;BME280;23738;50.422;18.758;2023-02-23T01:42:43;98527.35;;;0.24;79.13
37904;BME280;23738;50.422;18.758;2023-02-23T01:45:32;98530.06;;;0.28;79.24
37904;BME280;23738;50.422;18.758;2023-02-23T01:48:04;98530.29;;;0.28;79.20
37904;BME280;23738;50.422;18.758;2023-02-23T01:50:38;98525.10;;;0.26;79.24
37904;BME280;23738;50.422;18.758;2023-02-23T01:53:08;98525.06;;;0.22;79.42
37904;BME280;23738;50.422;18.758;2023-02-23T01:55:37;98523.87;;;0.20;79.30
37904;BME280;23738;50.422;18.758;2023-02-23T01:58:08;98520.97;;;0.20;79.31
37904;BME280;23738;50.422;18.758;2023-02-23T02:00:42;98514.16;;;0.20;79.40
37904;BME280;23738;50.422;18.758;2023-02-23T02:03:14;98517.80;;;0.20;79.36
37904;BME280;23738;50.422;18.758;2023-02-23T02:05:44;98514.81;;;0.19;79.40
37904;BME280;23738;50.422;18.758;2023-02-23T02:08:13;98508.41;;;0.17;79.44
37904;BME280;23738;50.422;18.758;2023-02-23T02:10:40;98509.19;;;0.14;79.35
37904;BME280;23738;50.422;18.758;2023-02-23T02:13:15;98504.08;;;0.11;79.44
37904;BME280;23738;50.422;18.758;2023-02-23T02:16:05;98504.48;;;0.10;79.28
37904;BME280;23738;50.422;18.758;2023-02-23T02:18:47;98501.15;;;0.11;79.39
37904;BME280;23738;50.422;18.758;2023-02-23T02:21:34;98500.17;;;0.12;79.42
37904;BME280;23738;50.422;18.758;2023-02-23T02:24:25;98498.59;;;0.12;79.39
37904;BME280;23738;50.422;18.758;2023-02-23T02:27:08;98499.91;;;0.09;79.23
37904;BME280;23738;50.422;18.758;2023-02-23T02:30:09;98498.67;;;0.06;79.49
37904;BME280;23738;50.422;18.758;2023-02-23T02:38:47;98500.70;;;0.04;79.41
37904;BME280;23738;50.422;18.758;2023-02-23T02:41:27;98498.36;;;0.05;79.43
37904;BME280;23738;50.422;18.758;2023-02-23T02:44:09;98497.23;;;0.06;79.44
37904;BME280;23738;50.422;18.758;2023-02-23T02:46:39;98498.91;;;0.05;79.50
37904;BME280;23738;50.422;18.758;2023-02-23T02:49:12;98496.25;;;0.04;79.39
37904;BME280;23738;50.422;18.758;2023-02-23T02:51:45;98495.29;;;0.01;79.48
37904;BME280;23738;50.422;18.758;2023-02-23T02:54:21;98496.54;;;-0.04;79.39
37904;BME280;23738;50.422;18.758;2023-02-23T02:56:50;98491.31;;;-0.06;79.45
37904;BME280;23738;50.422;18.758;2023-02-23T02:59:19;98483.09;;;-0.07;79.35
37904;BME280;23738;50.422;18.758;2023-02-23T03:02:06;98485.77;;;-0.06;79.54
37904;BME280;23738;50.422;18.758;2023-02-23T03:04:54;98487.98;;;-0.05;79.52
37904;BME280;23738;50.422;18.758;2023-02-23T03:07:43;98485.77;;;-0.06;79.67
37904;BME280;23738;50.422;18.758;2023-02-23T03:10:38;98488.96;;;-0.08;79.62
37904;BME280;23738;50.422;18.758;2023-02-23T03:13:31;98486.02;;;-0.11;79.63
37904;BME280;23738;50.422;18.758;2023-02-23T03:16:24;98490.48;;;-0.12;79.56
37904;BME280;23738;50.422;18.758;2023-02-23T03:19:19;98490.88;;;-0.11;79.64
37904;BME280;23738;50.422;18.758;2023-02-23T03:22:16;98490.88;;;-0.09;79.59
37904;BME280;23738;50.422;18.758;2023-02-23T03:25:06;98487.48;;;-0.06;79.70
37904;BME280;23738;50.422;18.758;2023-02-23T03:27:58;98486.45;;;-0.06;79.60
37904;BME280;23738;50.422;18.758;2023-02-23T03:30:56;98488.47;;;-0.05;79.72
37904;BME280;23738;50.422;18.758;2023-02-23T03:33:55;98491.11;;;-0.06;79.78
37904;BME280;23738;50.422;18.758;2023-02-23T03:36:46;98485.70;;;-0.11;79.69
37904;BME280;23738;50.422;18.758;2023-02-23T03:39:39;98489.30;;;-0.12;79.62
37904;BME280;23738;50.422;18.758;2023-02-23T03:42:31;98488.27;;;-0.14;79.57
37904;BME280;23738;50.422;18.758;2023-02-23T03:45:21;98490.06;;;-0.13;79.69
37904;BME280;23738;50.422;18.758;2023-02-23T03:48:10;98488.95;;;-0.08;79.66
37904;BME280;23738;50.422;18.758;2023-02-23T03:51:00;98492.85;;;-0.08;79.71
37904;BME280;23738;50.422;18.758;2023-02-23T03:53:59;98496.41;;;-0.07;79.74
37904;BME280;23738;50.422;18.758;2023-02-23T03:56:49;98495.98;;;-0.08;79.67
37904;BME280;23738;50.422;18.758;2023-02-23T03:59:39;98499.75;;;-0.11;79.72
37904;BME280;23738;50.422;18.758;2023-02-23T04:02:29;98499.52;;;-0.16;79.75
37904;BME280;23738;50.422;18.758;2023-02-23T04:05:19;98498.23;;;-0.19;79.70
37904;BME280;23738;50.422;18.758;2023-02-23T04:08:11;98502.02;;;-0.19;79.63
37904;BME280;23738;50.422;18.758;2023-02-23T04:11:06;98498.60;;;-0.20;79.58
37904;BME280;23738;50.422;18.758;2023-02-23T04:13:59;98501.43;;;-0.16;79.65
37904;BME280;23738;50.422;18.758;2023-02-23T04:16:28;98496.57;;;-0.18;79.69
37904;BME280;23738;50.422;18.758;2023-02-23T04:18:56;98494.80;;;-0.20;79.81
37904;BME280;23738;50.422;18.758;2023-02-23T04:21:24;98491.73;;;-0.24;79.64
37904;BME280;23738;50.422;18.758;2023-02-23T04:23:51;98490.89;;;-0.29;79.67
37904;BME280;23738;50.422;18.758;2023-02-23T04:26:18;98492.14;;;-0.31;79.74
37904;BME280;23738;50.422;18.758;2023-02-23T04:28:45;98486.21;;;-0.34;79.64
37904;BME280;23738;50.422;18.758;2023-02-23T04:31:12;98480.54;;;-0.39;79.58
37904;BME280;23738;50.422;18.758;2023-02-23T04:33:39;98484.30;;;-0.34;79.58
37904;BME280;23738;50.422;18.758;2023-02-23T04:36:07;98482.00;;;-0.32;79.71
37904;BME280;23738;50.422;18.758;2023-02-23T04:38:34;98482.92;;;-0.30;79.73
37904;BME280;23738;50.422;18.758;2023-02-23T04:41:02;98480.58;;;-0.31;79.64
37904;BME280;23738;50.422;18.758;2023-02-23T04:43:29;98481.70;;;-0.30;79.90
37904;BME280;23738;50.422;18.758;2023-02-23T04:45:56;98474.77;;;-0.34;79.88
37904;BME280;23738;50.422;18.758;2023-02-23T04:48:23;98480.29;;;-0.38;79.82
37904;BME280;23738;50.422;18.758;2023-02-23T04:50:53;98476.23;;;-0.41;79.96
37904;BME280;23738;50.422;18.758;2023-02-23T04:53:20;98474.30;;;-0.43;79.80
37904;BME280;23738;50.422;18.758;2023-02-23T04:55:47;98473.56;;;-0.42;79.85
37904;BME280;23738;50.422;18.758;2023-02-23T04:58:15;98474.80;;;-0.41;79.86
37904;BME280;23738;50.422;18.758;2023-02-23T05:00:42;98479.23;;;-0.38;79.84
37904;BME280;23738;50.422;18.758;2023-02-23T05:03:09;98478.39;;;-0.36;79.91
37904;BME280;23738;50.422;18.758;2023-02-23T05:05:37;98475.70;;;-0.37;80.01
37904;BME280;23738;50.422;18.758;2023-02-23T05:08:06;98476.06;;;-0.41;79.97
37904;BME280;23738;50.422;18.758;2023-02-23T05:10:34;98473.80;;;-0.43;79.99
37904;BME280;23738;50.422;18.758;2023-02-23T05:13:01;98475.26;;;-0.46;80.11
37904;BME280;23738;50.422;18.758;2023-02-23T05:15:28;98477.45;;;-0.49;80.16
37904;BME280;23738;50.422;18.758;2023-02-23T05:17:55;98478.31;;;-0.51;80.06
37904;BME280;23738;50.422;18.758;2023-02-23T05:20:22;98481.77;;;-0.49;80.13
37904;BME280;23738;50.422;18.758;2023-02-23T05:22:50;98475.92;;;-0.45;79.96
37904;BME280;23738;50.422;18.758;2023-02-23T05:25:17;98478.50;;;-0.43;79.96
37904;BME280;23738;50.422;18.758;2023-02-23T05:27:44;98477.67;;;-0.42;80.07
37904;BME280;23738;50.422;18.758;2023-02-23T05:30:13;98477.84;;;-0.41;80.17
37904;BME280;23738;50.422;18.758;2023-02-23T05:32:41;98480.30;;;-0.42;80.26
37904;BME280;23738;50.422;18.758;2023-02-23T05:35:09;98479.86;;;-0.45;80.15
37904;BME280;23738;50.422;18.758;2023-02-23T05:37:36;98488.61;;;-0.46;80.22
37904;BME280;23738;50.422;18.758;2023-02-23T05:40:07;98485.80;;;-0.48;80.10
37904;BME280;23738;50.422;18.758;2023-02-23T05:42:34;98483.66;;;-0.49;80.14
37904;BME280;23738;50.422;18.758;2023-02-23T05:45:04;98484.27;;;-0.44;80.28
37904;BME280;23738;50.422;18.758;2023-02-23T05:47:32;98482.86;;;-0.42;80.18
37904;BME280;23738;50.422;18.758;2023-02-23T05:50:06;98481.09;;;-0.41;80.22
37904;BME280;23738;50.422;18.758;2023-02-23T05:52:37;98483.48;;;-0.41;80.29
37904;BME280;23738;50.422;18.758;2023-02-23T05:55:07;98484.17;;;-0.41;80.37
37904;BME280;23738;50.422;18.758;2023-02-23T05:57:35;98481.57;;;-0.43;80.45
37904;BME280;23738;50.422;18.758;2023-02-23T06:00:05;98485.11;;;-0.44;80.34
37904;BME280;23738;50.422;18.758;2023-02-23T06:02:33;98485.20;;;-0.47;80.48
37904;BME280;23738;50.422;18.758;2023-02-23T06:05:02;98484.98;;;-0.48;80.36
37904;BME280;23738;50.422;18.758;2023-02-23T06:07:29;98488.38;;;-0.45;80.48
37904;BME280;23738;50.422;18.758;2023-02-23T06:09:56;98490.08;;;-0.41;80.34
37904;BME280;23738;50.422;18.758;2023-02-23T06:12:23;98491.36;;;-0.36;80.37
37904;BME280;23738;50.422;18.758;2023-02-23T06:14:51;98490.63;;;-0.33;80.33
37904;BME280;23738;50.422;18.758;2023-02-23T06:17:18;98492.57;;;-0.32;80.49
37904;BME280;23738;50.422;18.758;2023-02-23T06:19:45;98494.43;;;-0.31;80.61
37904;BME280;23738;50.422;18.758;2023-02-23T06:22:12;98490.31;;;-0.32;80.67
37904;BME280;23738;50.422;18.758;2023-02-23T06:24:42;98495.98;;;-0.31;80.69
37904;BME280;23738;50.422;18.758;2023-02-23T06:27:09;98496.67;;;-0.31;80.71
37904;BME280;23738;50.422;18.758;2023-02-23T06:29:37;98498.70;;;-0.31;80.61
37904;BME280;23738;50.422;18.758;2023-02-23T06:32:05;98495.83;;;-0.27;80.61
37904;BME280;23738;50.422;18.758;2023-02-23T06:34:33;98495.15;;;-0.22;80.76
37904;BME280;23738;50.422;18.758;2023-02-23T06:37:00;98498.91;;;-0.15;80.85
37904;BME280;23738;50.422;18.758;2023-02-23T06:39:28;98501.20;;;-0.10;80.87
37904;BME280;23738;50.422;18.758;2023-02-23T06:41:55;98499.87;;;-0.05;80.95
37904;BME280;23738;50.422;18.758;2023-02-23T06:44:22;98501.30;;;-0.01;81.00
37904;BME280;23738;50.422;18.758;2023-02-23T06:46:50;98497.44;;;0.02;81.06
37904;BME280;23738;50.422;18.758;2023-02-23T06:49:17;98495.95;;;0.03;81.10
37904;BME280;23738;50.422;18.758;2023-02-23T06:51:44;98496.08;;;0.08;81.21
37904;BME280;23738;50.422;18.758;2023-02-23T06:54:11;98496.22;;;0.16;81.26
37904;BME280;23738;50.422;18.758;2023-02-23T06:56:38;98495.21;;;0.27;81.35
37904;BME280;23738;50.422;18.758;2023-02-23T06:59:06;98493.80;;;0.35;81.33
37904;BME280;23738;50.422;18.758;2023-02-23T07:01:33;98499.66;;;0.43;81.45
37904;BME280;23738;50.422;18.758;2023-02-23T07:04:00;98497.39;;;0.49;81.54
37904;BME280;23738;50.422;18.758;2023-02-23T07:06:27;98497.64;;;0.52;81.49
37904;BME280;23738;50.422;18.758;2023-02-23T07:08:57;98502.10;;;0.56;81.60
37904;BME280;23738;50.422;18.758;2023-02-23T07:11:24;98502.21;;;0.61;81.53
37904;BME280;23738;50.422;18.758;2023-02-23T07:13:51;98504.83;;;0.66;81.41
37904;BME280;23738;50.422;18.758;2023-02-23T07:16:19;98498.64;;;0.73;81.51
37904;BME280;23738;50.422;18.758;2023-02-23T07:18:46;98501.34;;;0.82;81.66
37904;BME280;23738;50.422;18.758;2023-02-23T07:21:13;98500.84;;;0.89;81.72
37904;BME280;23738;50.422;18.758;2023-02-23T07:23:40;98504.36;;;0.96;81.83
37904;BME280;23738;50.422;18.758;2023-02-23T07:26:08;98504.55;;;1.02;81.73
37904;BME280;23738;50.422;18.758;2023-02-23T07:28:35;98502.07;;;1.04;81.83
37904;BME280;23738;50.422;18.758;2023-02-23T07:31:04;98502.45;;;1.08;82.03
37904;BME280;23738;50.422;18.758;2023-02-23T07:33:31;98498.35;;;1.11;81.77
37904;BME280;23738;50.422;18.758;2023-02-23T07:35:59;98497.48;;;1.14;81.72
37904;BME280;23738;50.422;18.758;2023-02-23T07:38:26;98491.71;;;1.19;81.85
37904;BME280;23738;50.422;18.758;2023-02-23T07:40:54;98480.23;;;1.23;81.72
37904;BME280;23738;50.422;18.758;2023-02-23T07:43:21;98480.55;;;1.30;81.87
37904;BME280;23738;50.422;18.758;2023-02-23T07:45:49;98482.31;;;1.37;82.19
37904;BME280;23738;50.422;18.758;2023-02-23T07:48:17;98479.95;;;1.44;82.07
37904;BME280;23738;50.422;18.758;2023-02-23T07:50:44;98473.09;;;1.49;82.14
37904;BME280;23738;50.422;18.758;2023-02-23T07:53:12;98469.97;;;1.54;82.12
37904;BME280;23738;50.422;18.758;2023-02-23T07:55:41;98470.14;;;1.58;81.98
37904;BME280;23738;50.422;18.758;2023-02-23T07:58:09;98469.23;;;1.61;82.04
37904;BME280;23738;50.422;18.758;2023-02-23T08:00:36;98471.52;;;1.66;81.83
37904;BME280;23738;50.422;18.758;2023-02-23T08:03:06;98473.65;;;1.76;82.23
37904;BME280;23738;50.422;18.758;2023-02-23T08:05:33;98463.80;;;1.86;82.39
37904;BME280;23738;50.422;18.758;2023-02-23T08:08:01;98464.25;;;1.94;82.22
37904;BME280;23738;50.422;18.758;2023-02-23T08:10:29;98463.29;;;2.03;82.49
37904;BME280;23738;50.422;18.758;2023-02-23T08:12:57;98463.21;;;2.09;82.29
37904;BME280;23738;50.422;18.758;2023-02-23T08:15:25;98465.70;;;2.14;82.25
37904;BME280;23738;50.422;18.758;2023-02-23T08:17:52;98471.16;;;2.18;82.24
37904;BME280;23738;50.422;18.758;2023-02-23T08:20:20;98471.64;;;2.25;82.12
37904;BME280;23738;50.422;18.758;2023-02-23T08:22:47;98473.52;;;2.39;82.44
37904;BME280;23738;50.422;18.758;2023-02-23T08:25:18;98474.09;;;2.50;82.37
37904;BME280;23738;50.422;18.758;2023-02-23T08:27:46;98473.52;;;2.59;82.19
37904;BME280;23738;50.422;18.758;2023-02-23T08:30:14;98473.20;;;2.70;82.42
37904;BME280;23738;50.422;18.758;2023-02-23T08:32:42;98476.38;;;2.80;82.49
37904;BME280;23738;50.422;18.758;2023-02-23T08:35:10;98475.45;;;2.87;82.36
37904;BME280;23738;50.422;18.758;2023-02-23T08:37:38;98475.91;;;2.97;82.43
37904;BME280;23738;50.422;18.758;2023-02-23T08:40:08;98476.42;;;3.09;82.51
37904;BME280;23738;50.422;18.758;2023-02-23T08:42:38;98474.14;;;3.21;82.57
37904;BME280;23738;50.422;18.758;2023-02-23T08:45:07;98469.70;;;3.36;82.48
37904;BME280;23738;50.422;18.758;2023-02-23T08:47:35;98475.63;;;3.49;82.39
37904;BME280;23738;50.422;18.758;2023-02-23T08:50:04;98469.57;;;3.57;82.31
37904;BME280;23738;50.422;18.758;2023-02-23T08:52:32;98464.33;;;3.68;82.39
37904;BME280;23738;50.422;18.758;2023-02-23T08:54:59;98463.23;;;3.81;82.59
37904;BME280;23738;50.422;18.758;2023-02-23T08:57:26;98462.39;;;3.95;82.58
37904;BME280;23738;50.422;18.758;2023-02-23T08:59:54;98461.48;;;4.13;82.66
37904;BME280;23738;50.422;18.758;2023-02-23T09:02:21;98462.91;;;4.38;82.76
37904;BME280;23738;50.422;18.758;2023-02-23T09:04:49;98459.52;;;4.56;82.76
37904;BME280;23738;50.422;18.758;2023-02-23T09:07:21;98456.91;;;4.74;82.74
37904;BME280;23738;50.422;18.758;2023-02-23T09:09:54;98459.27;;;4.93;82.68
37904;BME280;23738;50.422;18.758;2023-02-23T09:12:21;98458.15;;;5.08;82.60
37904;BME280;23738;50.422;18.758;2023-02-23T09:14:48;98456.10;;;5.18;82.17
37904;BME280;23738;50.422;18.758;2023-02-23T09:17:17;98460.09;;;5.34;82.49
37904;BME280;23738;50.422;18.758;2023-02-23T09:19:44;98460.31;;;5.55;82.34
37904;BME280;23738;50.422;18.758;2023-02-23T09:22:11;98463.54;;;5.73;82.52
37904;BME280;23738;50.422;18.758;2023-02-23T09:24:38;98470.55;;;5.92;82.02
37904;BME280;23738;50.422;18.758;2023-02-23T09:27:06;98469.34;;;6.11;82.10
37904;BME280;23738;50.422;18.758;2023-02-23T09:29:33;98464.09;;;6.28;81.87
37904;BME280;23738;50.422;18.758;2023-02-23T09:32:03;98464.66;;;6.42;81.80
37904;BME280;23738;50.422;18.758;2023-02-23T09:34:30;98462.37;;;6.51;81.64
37904;BME280;23738;50.422;18.758;2023-02-23T09:36:58;98463.27;;;6.59;81.21
37904;BME280;23738;50.422;18.758;2023-02-23T09:39:27;98457.00;;;6.67;81.60
37904;BME280;23738;50.422;18.758;2023-02-23T09:42:02;98456.27;;;6.72;81.40
37904;BME280;23738;50.422;18.758;2023-02-23T09:44:45;98455.48;;;6.78;81.63
37904;BME280;23738;50.422;18.758;2023-02-23T09:47:30;98458.14;;;6.87;81.62
37904;BME280;23738;50.422;18.758;2023-02-23T09:49:59;98457.39;;;6.94;81.33
37904;BME280;23738;50.422;18.758;2023-02-23T09:52:35;98455.95;;;7.05;81.26
37904;BME280;23738;50.422;18.758;2023-02-23T09:55:08;98447.70;;;7.08;81.00
37904;BME280;23738;50.422;18.758;2023-02-23T09:57:38;98448.95;;;7.24;81.35
37904;BME280;23738;50.422;18.758;2023-02-23T10:00:17;98448.38;;;7.31;80.80
37904;BME280;23738;50.422;18.758;2023-02-23T10:03:13;98449.84;;;7.40;80.80
37904;BME280;23738;50.422;18.758;2023-02-23T10:05:47;98449.05;;;7.47;80.58
37904;BME280;23738;50.422;18.758;2023-02-23T10:08:29;98452.89;;;7.50;80.47
37904;BME280;23738;50.422;18.758;2023-02-23T10:11:07;98453.05;;;7.53;80.32
37904;BME280;23738;50.422;18.758;2023-02-23T10:13:46;98454.34;;;7.55;80.47
37904;BME280;23738;50.422;18.758;2023-02-23T10:16:21;98450.53;;;7.58;80.02
37904;BME280;23738;50.422;18.758;2023-02-23T10:18:56;98451.60;;;7.56;79.76
37904;BME280;23738;50.422;18.758;2023-02-23T10:21:32;98448.86;;;7.53;79.37
37904;BME280;23738;50.422;18.758;2023-02-23T10:24:03;98448.89;;;7.54;79.48
37904;BME280;23738;50.422;18.758;2023-02-23T10:26:37;98446.02;;;7.60;79.73
37904;BME280;23738;50.422;18.758;2023-02-23T10:29:17;98447.27;;;7.66;79.38
37904;BME280;23738;50.422;18.758;2023-02-23T10:31:48;98443.85;;;7.74;79.27
37904;BME280;23738;50.422;18.758;2023-02-23T10:34:18;98444.36;;;7.79;78.75
37904;BME280;23738;50.422;18.758;2023-02-23T10:36:49;98441.09;;;7.83;78.79
37904;BME280;23738;50.422;18.758;2023-02-23T10:39:18;98435.90;;;7.92;78.88
37904;BME280;23738;50.422;18.758;2023-02-23T10:41:45;98427.66;;;8.05;79.00
37904;BME280;23738;50.422;18.758;2023-02-23T10:44:18;98427.27;;;8.17;78.62
37904;BME280;23738;50.422;18.758;2023-02-23T10:46:50;98417.98;;;8.27;78.43
37904;BME280;23738;50.422;18.758;2023-02-23T10:49:21;98417.67;;;8.33;78.46
37904;BME280;23738;50.422;18.758;2023-02-23T10:51:51;98416.84;;;8.40;78.37
37904;BME280;23738;50.422;18.758;2023-02-23T10:54:37;98412.23;;;8.44;77.96
37904;BME280;23738;50.422;18.758;2023-02-23T10:57:10;98408.59;;;8.49;78.13
37904;BME280;23738;50.422;18.758;2023-02-23T10:59:51;98405.89;;;8.55;78.13
37904;BME280;23738;50.422;18.758;2023-02-23T11:02:23;98399.70;;;8.67;78.21
37904;BME280;23738;50.422;18.758;2023-02-23T11:04:53;98395.48;;;8.76;78.05
37904;BME280;23738;50.422;18.758;2023-02-23T11:07:23;98392.34;;;8.82;77.71
37904;BME280;23738;50.422;18.758;2023-02-23T11:09:52;98392.55;;;8.83;77.27
37904;BME280;23738;50.422;18.758;2023-02-23T11:12:21;98388.58;;;8.82;77.15
37904;BME280;23738;50.422;18.758;2023-02-23T11:14:50;98389.02;;;8.83;77.00
37904;BME280;23738;50.422;18.758;2023-02-23T11:17:30;98388.31;;;8.85;77.18
37904;BME280;23738;50.422;18.758;2023-02-23T11:20:01;98383.63;;;8.89;77.14
37904;BME280;23738;50.422;18.758;2023-02-23T11:22:35;98381.03;;;8.92;76.96
37904;BME280;23738;50.422;18.758;2023-02-23T11:25:14;98380.23;;;8.93;76.85
37904;BME280;23738;50.422;18.758;2023-02-23T11:27:46;98376.42;;;8.97;76.49
37904;BME280;23738;50.422;18.758;2023-02-23T11:30:19;98372.42;;;8.98;76.53
37904;BME280;23738;50.422;18.758;2023-02-23T11:32:50;98370.53;;;8.99;76.45
37904;BME280;23738;50.422;18.758;2023-02-23T11:35:28;98370.60;;;8.98;76.11
37904;BME280;23738;50.422;18.758;2023-02-23T11:37:56;98364.17;;;8.95;76.00
37904;BME280;23738;50.422;18.758;2023-02-23T11:40:26;98360.96;;;8.94;75.82
37904;BME280;23738;50.422;18.758;2023-02-23T11:42:55;98363.61;;;8.93;75.67
37904;BME280;23738;50.422;18.758;2023-02-23T11:45:25;98358.81;;;8.94;75.72
37904;BME280;23738;50.422;18.758;2023-02-23T11:47:55;98358.66;;;8.94;75.56
37904;BME280;23738;50.422;18.758;2023-02-23T11:50:27;98357.52;;;8.96;75.58
37904;BME280;23738;50.422;18.758;2023-02-23T11:53:01;98354.30;;;8.98;75.48
37904;BME280;23738;50.422;18.758;2023-02-23T11:55:31;98353.76;;;9.00;75.25
37904;BME280;23738;50.422;18.758;2023-02-23T11:58:14;98350.77;;;9.02;75.34
37904;BME280;23738;50.422;18.758;2023-02-23T12:00:54;98348.21;;;9.07;75.32
37904;BME280;23738;50.422;18.758;2023-02-23T12:03:23;98341.23;;;9.07;75.16
37904;BME280;23738;50.422;18.758;2023-02-23T12:05:53;98343.68;;;9.04;74.96
37904;BME280;23738;50.422;18.758;2023-02-23T12:08:33;98341.08;;;9.04;75.00
37904;BME280;23738;50.422;18.758;2023-02-23T12:11:06;98336.64;;;9.04;74.87
37904;BME280;23738;50.422;18.758;2023-02-23T12:13:41;98335.03;;;9.07;74.77
37904;BME280;23738;50.422;18.758;2023-02-23T12:16:15;98333.48;;;9.07;74.84
37904;BME280;23738;50.422;18.758;2023-02-23T12:18:47;98332.65;;;9.12;74.98
37904;BME280;23738;50.422;18.758;2023-02-23T12:21:26;98330.91;;;9.19;74.61
37904;BME280;23738;50.422;18.758;2023-02-23T12:24:04;98327.05;;;9.24;74.61
37904;BME280;23738;50.422;18.758;2023-02-23T12:26:33;98321.59;;;9.29;74.54
37904;BME280;23738;50.422;18.758;2023-02-23T12:29:14;98318.01;;;9.33;74.52
37904;BME280;23738;50.422;18.758;2023-02-23T12:31:48;98311.59;;;9.41;74.58
37904;BME280;23738;50.422;18.758;2023-02-23T12:34:21;98306.34;;;9.46;74.24
37904;BME280;23738;50.422;18.758;2023-02-23T12:36:56;98300.35;;;9.48;74.15
37904;BME280;23738;50.422;18.758;2023-02-23T12:39:29;98295.64;;;9.52;74.28
37904;BME280;23738;50.422;18.758;2023-02-23T12:42:03;98300.73;;;9.57;74.07
37904;BME280;23738;50.422;18.758;2023-02-23T12:44:40;98293.37;;;9.64;74.05
37904;BME280;23738;50.422;18.758;2023-02-23T12:47:19;98294.52;;;9.71;73.97
37904;BME280;23738;50.422;18.758;2023-02-23T12:49:51;98287.05;;;9.75;73.74
37904;BME280;23738;50.422;18.758;2023-02-23T12:52:21;98279.90;;;9.80;73.66
37904;BME280;23738;50.422;18.758;2023-02-23T12:54:51;98277.08;;;9.84;73.29
37904;BME280;23738;50.422;18.758;2023-02-23T12:57:27;98276.77;;;9.85;73.28
37904;BME280;23738;50.422;18.758;2023-02-23T13:00:14;98271.02;;;9.87;73.30
37904;BME280;23738;50.422;18.758;2023-02-23T13:03:11;98271.11;;;9.88;72.83
37904;BME280;23738;50.422;18.758;2023-02-23T13:05:44;98269.91;;;9.90;73.01
37904;BME280;23738;50.422;18.758;2023-02-23T13:08:21;98264.16;;;9.94;72.57
37904;BME280;23738;50.422;18.758;2023-02-23T13:10:56;98265.27;;;9.97;72.95
37904;BME280;23738;50.422;18.758;2023-02-23T13:13:33;98260.96;;;10.03;72.82
37904;BME280;23738;50.422;18.758;2023-02-23T13:16:10;98260.88;;;10.07;72.15
37904;BME280;23738;50.422;18.758;2023-02-23T13:18:43;98261.15;;;10.07;72.41
37904;BME280;23738;50.422;18.758;2023-02-23T13:21:18;98254.73;;;10.07;72.10
37904;BME280;23738;50.422;18.758;2023-02-23T13:23:56;98251.45;;;10.06;72.43
37904;BME280;23738;50.422;18.758;2023-02-23T13:26:32;98254.66;;;10.03;71.57
37904;BME280;23738;50.422;18.758;2023-02-23T13:29:06;98254.10;;;10.02;71.74
37904;BME280;23738;50.422;18.758;2023-02-23T13:31:40;98253.35;;;10.00;71.80